Time;durP1;ratioP1;P1;durP2;ratioP2;P2;SDS_P1;SDS_P2;PMS_P1;PMS_P2;Temp;Humidity;BMP_temperature;BMP_pressure;BME280_temperature;BME280_humidity;BME280_pressure;Samples;Min_cycle;Max_cycle;Signal;HPM_P1;HPM_P2
2022/09/16 00:02:16;;;;;;;12.10;10.90;;;13.70;91.10;;;16.14;67.60;97295.03;5068007;28;20500;-75
2022/09/16 00:04:45;;;;;;;11.83;10.73;;;13.60;91.30;;;16.07;67.58;97291.75;5065034;28;20577;-76
2022/09/16 00:07:12;;;;;;;13.93;12.53;;;13.70;91.40;;;15.91;68.31;97293.63;5065892;28;20565;-75
2022/09/16 00:09:39;;;;;;;14.40;12.60;;;13.70;91.30;;;15.70;68.67;97291.63;5070227;28;20494;-75
2022/09/16 00:12:07;;;;;;;16.20;12.53;;;13.60;91.40;;;15.90;68.50;97298.25;5075467;28;20489;-75
2022/09/16 00:14:34;;;;;;;11.30;10.30;;;13.60;91.40;;;16.39;66.82;97294.25;5083368;28;20519;-76
2022/09/16 00:17:02;;;;;;;10.93;9.93;;;13.70;91.50;;;16.13;66.72;97285.22;5072071;28;20504;-75
2022/09/16 00:19:29;;;;;;;11.40;10.13;;;13.80;90.40;;;16.00;66.80;97281.94;5070149;28;20457;-75
2022/09/16 00:21:57;;;;;;;13.70;10.43;;;13.80;90.30;;;16.39;66.17;97291.53;5070579;28;20450;-75
2022/09/16 00:24:25;;;;;;;11.53;10.40;;;13.90;90.50;;;16.52;65.50;97289.38;5069287;28;20475;-76
2022/09/16 00:26:52;;;;;;;11.53;10.20;;;13.90;90.10;;;16.53;65.39;97282.81;5070382;28;20438;-75
2022/09/16 00:29:19;;;;;;;9.53;8.63;;;13.90;90.10;;;16.41;64.99;97286.63;5069943;28;20501;-73
2022/09/16 00:31:46;;;;;;;11.30;9.60;;;13.90;90.00;;;16.05;65.97;97286.56;5068541;28;20492;-74
2022/09/16 00:34:13;;;;;;;11.03;9.10;;;13.80;89.10;;;16.41;65.15;97273.00;5067381;28;20491;-75
2022/09/16 00:36:43;;;;;;;9.87;8.87;;;13.90;89.50;;;16.23;65.58;97284.44;5069352;28;21021;-75
2022/09/16 00:39:12;;;;;;;11.17;9.77;;;13.80;89.50;;;16.26;65.20;97281.16;5058319;28;21034;-75
2022/09/16 00:41:40;;;;;;;10.03;9.03;;;13.80;89.10;;;16.25;65.19;97282.25;5063961;28;20512;-74
2022/09/16 00:44:46;;;;;;;8.83;8.00;;;13.90;88.70;;;15.72;66.31;97281.28;5075397;28;20463;-73
2022/09/16 00:47:16;;;;;;;11.00;9.30;;;13.80;88.40;;;16.07;65.90;97303.47;5059951;28;20517;-72
2022/09/16 00:49:45;;;;;;;10.43;8.87;;;13.80;88.60;;;16.26;65.16;97292.88;5064030;28;20487;-73
2022/09/16 00:52:13;;;;;;;12.80;8.90;;;13.80;89.00;;;16.50;64.58;97288.81;5061856;28;20455;-72
2022/09/16 00:54:43;;;;;;;14.83;8.90;;;13.90;88.90;;;16.34;65.01;97280.63;5065220;28;20466;-73
2022/09/16 00:57:13;;;;;;;9.87;8.23;;;13.80;88.90;;;16.22;65.75;97288.25;5061666;28;20513;-74
2022/09/16 00:59:44;;;;;;;9.50;8.47;;;13.80;89.10;;;16.00;65.53;97284.66;5063153;28;20533;-74
2022/09/16 01:02:14;;;;;;;10.00;8.87;;;13.80;88.70;;;16.00;65.47;97264.78;5066614;28;20453;-72
2022/09/16 01:04:46;;;;;;;9.67;8.77;;;13.80;88.60;;;15.58;66.40;97266.50;5073653;28;20467;-72
2022/09/16 01:07:14;;;;;;;9.80;8.27;;;13.70;88.70;;;15.96;66.12;97277.28;5065119;28;20942;-72
2022/09/16 01:09:42;;;;;;;9.37;8.20;;;13.60;89.30;;;15.78;65.84;97273.94;5061039;28;20543;-73
2022/09/16 01:12:09;;;;;;;9.23;8.30;;;13.50;89.30;;;15.95;65.93;97286.53;5060068;28;20544;-73
2022/09/16 01:14:57;;;;;;;9.03;7.30;;;13.60;89.60;;;16.05;65.17;97277.56;5066443;28;20481;-73
2022/09/16 01:17:40;;;;;;;8.77;7.97;;;13.60;89.30;;;15.52;66.35;97275.75;5059016;28;20464;-72
2022/09/16 01:21:13;;;;;;;8.27;7.43;;;13.50;88.30;;;15.78;66.12;97268.50;5069069;28;21002;-73
2022/09/16 01:24:24;;;;;;;8.33;7.50;;;13.40;88.80;;;15.92;64.93;97271.56;5075654;28;20895;-73
2022/09/16 01:27:39;;;;;;;7.50;6.70;;;13.50;88.90;;;15.51;66.26;97279.56;5063188;28;20518;-73
2022/09/16 01:30:37;;;;;;;12.90;7.63;;;13.50;88.30;;;15.98;65.11;97277.81;5054896;28;20525;-74
2022/09/16 01:33:08;;;;;;;7.77;6.47;;;13.60;88.30;;;15.85;65.21;97279.97;5057553;28;20448;-73
2022/09/16 01:35:58;;;;;;;7.20;6.53;;;13.50;88.00;;;15.93;64.88;97286.00;5057029;28;20471;-73
2022/09/16 01:38:55;;;;;;;10.40;7.33;;;13.60;87.90;;;15.92;64.92;97277.03;5079259;28;20558;-73
2022/09/16 01:41:29;;;;;;;12.57;7.30;;;13.60;87.70;;;15.85;64.98;97285.41;5063771;28;20460;-72
2022/09/16 01:44:03;;;;;;;7.10;6.40;;;13.60;87.60;;;15.78;64.92;97279.38;5060256;28;20466;-73
2022/09/16 01:46:43;;;;;;;7.70;6.30;;;13.50;87.30;;;15.99;64.48;97269.41;5061717;28;20567;-74
2022/09/16 01:49:20;;;;;;;8.10;7.03;;;13.50;87.60;;;16.03;64.50;97275.13;5075708;28;20502;-73
2022/09/16 01:51:56;;;;;;;7.53;6.77;;;13.50;88.10;;;16.12;63.60;97273.50;5065905;28;20990;-75
2022/09/16 01:54:32;;;;;;;7.43;6.70;;;13.70;87.60;;;15.96;63.87;97285.44;5064356;28;21397;-74
2022/09/16 01:57:04;;;;;;;7.30;6.30;;;13.60;87.40;;;15.84;64.77;97283.75;5072797;28;20483;-73
2022/09/16 01:59:37;;;;;;;7.77;6.87;;;13.60;87.50;;;15.83;64.90;97281.31;5063017;28;20514;-74
2022/09/16 02:02:12;;;;;;;7.60;6.80;;;13.50;87.40;;;16.05;64.16;97281.13;5069827;28;20544;-74
2022/09/16 02:04:45;;;;;;;7.27;6.17;;;13.60;88.00;;;15.82;64.98;97285.13;5068630;28;20505;-74
2022/09/16 02:07:17;;;;;;;7.43;6.73;;;13.50;87.60;;;15.98;64.22;97277.81;5062209;28;20513;-73
2022/09/16 02:09:51;;;;;;;9.10;7.40;;;13.60;87.60;;;15.96;64.28;97278.13;5066252;28;20457;-74
2022/09/16 02:12:24;;;;;;;7.80;6.70;;;13.60;87.10;;;16.00;63.89;97260.13;5069050;28;20462;-74
2022/09/16 02:14:57;;;;;;;8.10;7.30;;;13.60;87.60;;;15.80;64.81;97266.31;5065938;28;20488;-75
2022/09/16 02:17:28;;;;;;;6.17;5.50;;;13.50;87.20;;;15.83;64.57;97271.22;5067035;28;20543;-73
2022/09/16 02:20:00;;;;;;;6.90;6.20;;;13.50;87.30;;;15.81;64.43;97276.13;5065681;28;20514;-74
2022/09/16 02:22:33;;;;;;;7.57;6.63;;;13.50;87.00;;;15.62;63.67;97225.97;5064875;28;20458;-75
2022/09/16 02:25:02;;;;;;;7.03;6.33;;;13.50;87.10;;;15.70;64.65;97272.56;5068426;28;20471;-75
2022/09/16 02:27:30;;;;;;;8.07;6.00;;;13.50;86.80;;;15.84;64.25;97280.22;5064064;28;20583;-75
2022/09/16 02:30:04;;;;;;;6.90;5.70;;;13.60;86.70;;;15.78;64.52;97282.09;5066817;28;20970;-75
2022/09/16 02:32:37;;;;;;;7.20;6.33;;;13.60;86.70;;;15.92;64.24;97278.91;5069925;28;20458;-75
2022/09/16 02:35:07;;;;;;;6.27;5.67;;;13.60;87.00;;;15.90;64.43;97281.09;5070662;28;20448;-75
2022/09/16 02:37:40;;;;;;;6.70;6.10;;;13.60;86.80;;;15.86;64.53;97280.78;5067773;28;20505;-76
2022/09/16 02:40:16;;;;;;;7.07;6.37;;;13.50;87.20;;;15.88;64.48;97277.78;5073789;28;20510;-75
2022/09/16 02:42:43;;;;;;;7.87;7.10;;;13.60;87.30;;;15.87;64.74;97279.69;5067647;28;20558;-74
2022/09/16 02:45:12;;;;;;;6.57;5.97;;;13.60;87.40;;;16.15;64.32;97280.31;5061268;28;21026;-75
2022/09/16 02:47:49;;;;;;;7.53;6.73;;;13.60;87.70;;;16.06;64.08;97285.50;5063014;28;20484;-75
2022/09/16 02:50:25;;;;;;;7.70;6.63;;;13.60;87.50;;;15.97;64.88;97278.91;5068401;28;20525;-75
2022/09/16 02:52:59;;;;;;;7.13;6.43;;;13.50;87.50;;;15.98;64.78;97281.38;5067411;28;20451;-75
2022/09/16 02:55:37;;;;;;;7.50;6.70;;;13.50;87.90;;;16.07;64.57;97276.22;5068698;28;20476;-74
2022/09/16 02:58:05;;;;;;;7.73;7.00;;;13.60;87.80;;;16.05;64.43;97278.41;5067166;28;20467;-74
2022/09/16 03:00:37;;;;;;;7.53;6.83;;;13.60;87.60;;;15.76;65.31;97281.56;5066039;28;20817;-74
2022/09/16 03:03:07;;;;;;;6.87;6.27;;;13.50;87.60;;;15.63;65.45;97271.16;5063435;28;21016;-74
2022/09/16 03:05:34;;;;;;;9.23;6.33;;;13.50;87.30;;;15.91;64.70;97282.72;5063107;28;20476;-75
2022/09/16 03:08:02;;;;;;;6.83;6.23;;;13.50;87.50;;;15.26;66.19;97278.34;5067638;28;20562;-74
2022/09/16 03:10:40;;;;;;;6.97;6.10;;;13.40;87.20;;;15.75;64.82;97271.75;5064479;28;20469;-75
2022/09/16 03:13:16;;;;;;;7.63;5.80;;;13.50;87.50;;;15.83;65.05;97271.22;5067317;28;20463;-75
2022/09/16 03:15:56;;;;;;;6.30;5.70;;;13.50;87.40;;;15.94;64.08;97285.75;5069929;28;20458;-74
2022/09/16 03:18:51;;;;;;;8.40;5.97;;;13.50;87.20;;;15.89;64.28;97279.44;5081080;28;20462;-74
2022/09/16 03:21:25;;;;;;;7.23;6.10;;;13.50;87.40;;;15.78;64.66;97273.94;5072470;28;20785;-73
2022/09/16 03:24:05;;;;;;;6.23;5.70;;;13.50;87.20;;;15.86;64.41;97284.31;5064546;28;20459;-74
2022/09/16 03:26:43;;;;;;;6.37;5.33;;;13.50;87.10;;;15.75;64.25;97274.47;5065963;28;20557;-74
2022/09/16 03:29:18;;;;;;;5.50;5.00;;;13.40;87.40;;;15.96;64.11;97275.38;5060761;28;20444;-75
2022/09/16 03:31:50;;;;;;;6.40;5.73;;;13.40;87.20;;;16.04;63.63;97270.50;5060150;28;21050;-74
2022/09/16 03:34:25;;;;;;;9.20;5.80;;;13.40;87.30;;;15.98;64.01;97272.38;5063552;28;20568;-74
2022/09/16 03:36:59;;;;;;;5.63;5.13;;;13.40;87.80;;;15.86;63.68;97276.16;5065608;28;20460;-74
2022/09/16 03:39:26;;;;;;;6.27;5.67;;;13.40;87.50;;;15.89;64.00;97277.53;5075536;28;20874;-74
2022/09/16 03:41:55;;;;;;;6.37;5.43;;;13.40;87.20;;;15.60;63.97;97241.75;5063230;28;20471;-76
2022/09/16 03:44:32;;;;;;;9.00;5.57;;;13.40;87.10;;;15.95;63.87;97273.75;5060093;28;20482;-74
2022/09/16 03:47:00;;;;;;;6.47;5.57;;;13.40;86.80;;;15.74;64.39;97270.13;5061069;28;21215;-75
2022/09/16 03:49:29;;;;;;;6.27;5.63;;;13.40;86.90;;;15.56;64.70;97272.25;5066174;28;20525;-74
2022/09/16 03:51:56;;;;;;;5.90;5.00;;;13.40;87.00;;;15.78;64.07;97271.22;5067824;28;20846;-74
2022/09/16 03:54:24;;;;;;;6.37;5.43;;;13.40;87.10;;;15.84;64.23;97264.69;5070067;28;20478;-74
2022/09/16 03:56:51;;;;;;;7.20;5.67;;;13.40;87.10;;;15.82;64.67;97263.34;5073211;28;20973;-74
2022/09/16 03:59:19;;;;;;;8.20;5.70;;;13.40;87.40;;;15.54;64.36;97257.25;5062047;28;20502;-75
2022/09/16 04:01:46;;;;;;;10.37;5.67;;;13.30;87.20;;;15.75;64.16;97258.13;5067290;28;20485;-75
2022/09/16 04:04:13;;;;;;;6.60;5.13;;;13.30;87.10;;;15.88;63.63;97261.44;5065679;28;20512;-74
2022/09/16 04:06:42;;;;;;;7.27;6.13;;;13.40;87.20;;;15.81;64.11;97257.06;5067440;28;20486;-75
2022/09/16 04:09:12;;;;;;;6.50;5.60;;;13.30;86.90;;;15.63;64.85;97258.38;5059351;28;21353;-74
2022/09/16 04:11:40;;;;;;;6.10;5.50;;;13.30;87.20;;;15.90;63.92;97262.03;5067737;28;20456;-74
2022/09/16 04:14:08;;;;;;;6.10;5.50;;;13.40;87.10;;;15.96;63.83;97260.94;5067245;28;20468;-75
2022/09/16 04:16:35;;;;;;;6.37;5.77;;;13.30;87.20;;;15.91;64.02;97258.22;5069568;28;20468;-74
2022/09/16 04:19:02;;;;;;;8.17;6.20;;;13.30;87.50;;;15.83;64.50;97263.06;5064518;28;20571;-75
2022/09/16 04:21:29;;;;;;;5.73;5.23;;;13.30;87.80;;;15.45;65.08;97256.94;5066374;28;20467;-75
2022/09/16 04:23:58;;;;;;;5.83;4.90;;;13.20;87.60;;;15.55;64.99;97259.72;5081923;28;20539;-74
2022/09/16 04:26:25;;;;;;;6.23;5.63;;;13.20;87.60;;;15.63;65.09;97260.28;5048922;28;20570;-73
2022/09/16 04:28:54;;;;;;;7.10;5.60;;;13.20;88.10;;;15.64;65.04;97262.75;5064263;28;20455;-74
2022/09/16 04:31:21;;;;;;;8.80;5.90;;;13.20;88.20;;;15.53;65.38;97256.41;5086056;28;20463;-74
2022/09/16 04:33:49;;;;;;;9.20;5.80;;;13.10;88.20;;;15.69;65.23;97248.31;5070351;28;20487;-75
2022/09/16 04:36:19;;;;;;;6.53;5.90;;;13.20;88.70;;;15.84;64.48;97261.97;5069261;28;20454;-76
2022/09/16 04:38:48;;;;;;;6.93;5.50;;;13.20;89.00;;;15.37;65.88;97246.56;5068972;28;20452;-79
2022/09/16 04:41:19;;;;;;;6.53;5.33;;;13.20;87.80;;;15.43;65.54;97243.59;5065088;28;20470;-85
2022/09/16 04:43:51;;;;;;;6.37;5.77;;;13.10;87.90;;;15.56;65.11;97233.28;5060150;28;20463;-84
2022/09/16 04:46:20;;;;;;;5.43;4.93;;;13.20;88.60;;;15.65;66.36;97241.75;5057741;28;21185;-82
2022/09/16 04:48:49;;;;;;;8.53;6.23;;;13.20;90.40;;;15.21;65.92;97249.19;5063588;28;20512;-81
2022/09/16 04:51:17;;;;;;;6.47;5.50;;;13.20;88.20;;;15.26;66.55;97251.13;5073732;28;20452;-82
2022/09/16 04:53:44;;;;;;;5.50;5.00;;;13.10;88.20;;;15.25;66.19;97239.44;5069961;28;21041;-83
2022/09/16 04:56:14;;;;;;;8.00;6.00;;;13.10;88.20;;;15.15;66.26;97228.50;5069484;28;20943;-84
2022/09/16 04:58:44;;;;;;;10.30;5.73;;;13.10;88.80;;;15.50;65.21;97213.41;5071792;28;20456;-82
2022/09/16 05:01:15;;;;;;;6.63;6.03;;;13.10;88.50;;;15.28;65.92;97238.91;5072112;28;20490;-84
2022/09/16 05:03:43;;;;;;;6.47;5.87;;;13.00;88.60;;;15.24;66.07;97254.13;5062969;28;20513;-80
2022/09/16 05:06:14;;;;;;;6.90;6.20;;;13.10;88.70;;;15.46;65.79;97238.69;5066226;28;20975;-85
2022/09/16 05:08:41;;;;;;;8.23;5.50;;;13.10;88.90;;;15.51;65.96;97231.38;5072295;28;20460;-80
2022/09/16 05:11:11;;;;;;;6.37;5.77;;;13.20;90.10;;;15.62;65.45;97232.25;5066125;28;20537;-81
2022/09/16 05:13:39;;;;;;;8.60;6.20;;;13.20;88.90;;;15.49;65.51;97249.88;5067751;28;20464;-73
2022/09/16 05:16:09;;;;;;;8.80;5.47;;;13.20;88.00;;;15.73;64.90;97241.25;5055809;28;20553;-73
2022/09/16 05:18:39;;;;;;;8.27;5.67;;;13.40;88.10;;;15.48;64.96;97253.69;5062764;28;21078;-75
2022/09/16 05:21:09;;;;;;;8.57;5.60;;;13.40;87.10;;;15.47;65.29;97256.66;5061092;28;20553;-73
2022/09/16 05:23:37;;;;;;;5.50;5.00;;;13.40;87.10;;;15.65;64.95;97264.38;5046088;28;20999;-75
2022/09/16 05:26:07;;;;;;;8.97;5.23;;;13.50;87.00;;;15.49;64.56;97200.88;5082042;28;20562;-75
2022/09/16 05:28:36;;;;;;;5.13;4.60;;;13.50;87.30;;;15.86;64.20;97269.88;5066274;28;20452;-74
2022/09/16 05:31:16;;;;;;;8.13;5.70;;;13.50;87.00;;;15.56;64.76;97271.41;5069207;28;20449;-73
2022/09/16 05:33:46;;;;;;;6.90;5.13;;;13.50;86.40;;;15.41;64.90;97280.34;5064870;28;20547;-78
2022/09/16 05:36:15;;;;;;;9.57;4.93;;;13.50;86.40;;;15.28;65.23;97279.72;5071541;28;20458;-74
2022/09/16 05:38:44;;;;;;;13.10;5.20;;;13.40;86.20;;;15.54;65.18;97274.41;5052075;28;20561;-74
2022/09/16 05:41:11;;;;;;;5.50;4.97;;;13.40;86.70;;;15.39;64.60;97266.16;5057938;28;20490;-73
2022/09/16 05:43:39;;;;;;;6.00;4.87;;;13.40;86.40;;;15.64;64.96;97267.34;5057925;28;21043;-75
2022/09/16 05:46:07;;;;;;;5.43;4.93;;;13.40;86.60;;;15.50;64.46;97275.19;5061469;28;20505;-74
2022/09/16 05:48:36;;;;;;;8.77;4.77;;;13.40;86.20;;;15.47;65.11;97268.38;5063906;28;20935;-74
2022/09/16 05:51:06;;;;;;;7.60;4.93;;;13.40;86.40;;;15.57;64.66;97290.22;5062291;28;20532;-75
2022/09/16 05:53:35;;;;;;;6.10;5.50;;;13.40;86.20;;;15.44;64.41;97282.53;5075471;28;20513;-73
2022/09/16 05:56:07;;;;;;;6.23;4.70;;;13.40;86.00;;;15.18;65.06;97281.59;5056973;28;20451;-75
2022/09/16 05:58:35;;;;;;;5.30;4.80;;;13.40;85.40;;;15.21;65.02;97287.28;5064013;28;20530;-77
2022/09/16 06:01:05;;;;;;;8.27;4.80;;;13.40;85.50;;;15.10;64.76;97274.75;5059624;28;20487;-75
2022/09/16 06:03:34;;;;;;;5.90;4.23;;;13.40;85.60;;;15.30;65.28;97279.44;5061101;28;20459;-75
2022/09/16 06:06:06;;;;;;;4.67;3.90;;;13.30;85.90;;;15.25;64.81;97276.72;5058714;28;20475;-76
2022/09/16 06:08:35;;;;;;;5.23;4.73;;;13.40;85.60;;;15.29;64.54;97288.69;5064620;28;20473;-73
2022/09/16 06:11:04;;;;;;;7.17;4.70;;;13.40;85.50;;;15.33;64.15;97278.94;5062409;28;20475;-78
2022/09/16 06:13:32;;;;;;;7.40;4.40;;;13.50;85.10;;;15.28;64.45;97293.34;5061370;28;20455;-74
2022/09/16 06:16:00;;;;;;;4.30;3.90;;;13.50;84.90;;;15.43;64.44;97294.50;5068624;28;20519;-73
2022/09/16 06:18:30;;;;;;;4.40;4.00;;;13.50;85.00;;;15.30;64.61;97291.16;5074602;28;20530;-74
2022/09/16 06:20:58;;;;;;;4.47;4.07;;;13.50;84.60;;;15.65;63.45;97285.31;5078140;28;20453;-75
2022/09/16 06:23:27;;;;;;;5.37;4.87;;;13.60;84.80;;;16.05;62.39;97288.47;5074367;28;20454;-75
2022/09/16 06:26:01;;;;;;;4.23;3.83;;;13.80;84.80;;;15.69;63.07;97280.97;5072049;28;20742;-76
2022/09/16 06:28:28;;;;;;;8.13;4.07;;;13.80;84.30;;;15.71;62.90;97279.63;5076300;28;20501;-79
2022/09/16 06:31:05;;;;;;;3.40;3.10;;;13.80;84.10;;;15.56;63.04;97279.56;5064267;28;20473;-73
2022/09/16 06:33:33;;;;;;;5.87;3.90;;;13.80;83.70;;;15.91;62.56;97271.84;5065591;28;20466;-74
2022/09/16 06:36:04;;;;;;;5.73;3.63;;;13.80;84.20;;;16.15;61.45;97272.16;5070184;28;20947;-75
2022/09/16 06:38:35;;;;;;;5.17;3.67;;;13.90;83.80;;;15.98;61.85;97280.56;5067493;28;20454;-75
2022/09/16 06:41:04;;;;;;;7.97;4.00;;;13.80;83.60;;;15.80;62.06;97282.66;5060292;28;20463;-75
2022/09/16 06:43:31;;;;;;;3.33;3.00;;;13.80;83.50;;;15.75;61.98;97263.59;5065227;28;20485;-74
2022/09/16 06:46:00;;;;;;;3.80;3.40;;;13.80;83.40;;;15.69;62.32;97270.09;5065871;28;20548;-74
2022/09/16 06:48:28;;;;;;;5.50;3.60;;;13.70;83.60;;;15.67;62.70;97274.97;5061718;28;20516;-75
2022/09/16 06:50:59;;;;;;;3.80;3.10;;;13.70;83.50;;;15.86;62.15;97276.16;5080656;28;21188;-74
2022/09/16 06:53:27;;;;;;;5.57;3.30;;;13.80;83.80;;;15.90;62.13;97279.16;5062342;28;20568;-77
2022/09/16 06:56:00;;;;;;;8.20;3.73;;;13.80;83.40;;;16.10;61.39;97272.94;5066140;28;20497;-76
2022/09/16 06:58:29;;;;;;;3.70;2.77;;;13.90;83.30;;;15.89;61.42;97273.97;5064853;28;20495;-74
2022/09/16 07:00:56;;;;;;;3.43;2.90;;;14.00;82.80;;;16.04;61.12;97271.31;5066391;28;21296;-76
2022/09/16 07:03:23;;;;;;;3.00;2.70;;;14.00;82.80;;;15.63;61.88;97276.59;5068855;28;21044;-75
2022/09/16 07:05:57;;;;;;;7.20;3.00;;;13.90;82.10;;;15.73;61.29;97268.47;5065600;28;20459;-75
2022/09/16 07:08:24;;;;;;;5.80;2.93;;;13.90;82.00;;;15.83;60.74;97276.66;5066715;28;20490;-74
2022/09/16 07:11:02;;;;;;;3.90;2.70;;;14.00;81.90;;;16.19;59.78;97281.41;5061511;28;20466;-76
2022/09/16 07:13:30;;;;;;;4.03;2.80;;;14.00;81.80;;;16.36;59.51;97278.44;5061342;28;20516;-74
2022/09/16 07:16:00;;;;;;;5.80;2.80;;;14.30;81.90;;;16.37;59.40;97285.53;5061980;28;22223;-76
2022/09/16 07:18:28;;;;;;;5.03;2.60;;;14.40;81.60;;;16.14;59.43;97286.88;5064016;28;20461;-74
2022/09/16 07:21:02;;;;;;;4.20;2.27;;;14.30;80.70;;;15.99;59.61;97283.03;5060704;28;21013;-76
2022/09/16 07:23:31;;;;;;;2.53;2.17;;;14.20;80.60;;;15.79;59.57;97286.47;5057549;28;20469;-76
2022/09/16 07:26:06;;;;;;;3.53;2.53;;;14.20;80.10;;;15.50;59.43;97229.72;5058427;28;20459;-75
2022/09/16 07:28:34;;;;;;;4.20;2.20;;;14.10;80.30;;;15.97;59.26;97281.63;5065596;28;20520;-75
2022/09/16 07:31:02;;;;;;;2.63;1.83;;;14.10;80.40;;;16.42;57.49;97277.34;5079733;28;20527;-79
2022/09/16 07:33:31;;;;;;;4.43;2.10;;;14.30;79.90;;;16.26;58.05;97278.44;5066261;28;20464;-76
2022/09/16 07:35:59;;;;;;;3.30;1.83;;;14.40;79.70;;;16.24;57.50;97275.16;5055239;28;20751;-79
2022/09/16 07:38:26;;;;;;;2.10;1.90;;;14.50;78.90;;;16.80;56.97;97270.81;5060870;28;20464;-80
2022/09/16 07:40:55;;;;;;;5.37;1.90;;;14.70;79.30;;;16.63;56.57;97282.81;5058834;28;20794;-76
2022/09/16 07:43:23;;;;;;;4.33;2.20;;;14.70;78.60;;;16.86;55.88;97280.63;5058045;28;20604;-80
2022/09/16 07:45:56;;;;;;;4.30;2.37;;;14.90;78.30;;;15.99;56.48;97214.09;5049727;28;20525;-76
2022/09/16 07:48:23;;;;;;;5.33;1.70;;;14.70;77.60;;;16.66;56.14;97278.72;5074177;28;20507;-79
2022/09/16 07:50:56;;;;;;;2.83;2.00;;;14.70;77.90;;;16.91;55.49;97280.63;5052145;28;22710;-72
2022/09/16 07:53:24;;;;;;;3.30;2.10;;;14.90;77.70;;;16.90;55.52;97281.69;5048167;28;20466;-77
2022/09/16 07:55:51;;;;;;;5.40;2.20;;;14.90;77.40;;;16.94;55.09;97276.50;5061495;28;20460;-76
2022/09/16 07:58:18;;;;;;;3.40;2.13;;;15.10;77.00;;;17.08;55.00;97263.16;5078792;28;20841;-79
2022/09/16 08:00:48;;;;;;;3.40;2.23;;;15.10;77.10;;;17.31;54.71;97280.03;5064687;28;20460;-78
2022/09/16 08:03:16;;;;;;;5.80;1.90;;;15.30;76.90;;;17.63;53.86;97281.53;5058616;28;20455;-78
2022/09/16 08:05:44;;;;;;;4.50;1.80;;;15.60;76.80;;;16.85;54.86;97289.91;5059229;28;20455;-75
2022/09/16 08:08:11;;;;;;;2.07;1.83;;;15.20;75.60;;;16.64;53.96;97224.47;5057172;28;20485;-78
2022/09/16 08:10:39;;;;;;;2.90;1.60;;;15.20;75.40;;;17.12;54.32;97280.63;5056856;28;20528;-74
2022/09/16 08:13:07;;;;;;;7.10;2.23;;;15.20;75.60;;;17.14;53.69;97283.88;5062628;28;21097;-74
2022/09/16 08:15:34;;;;;;;2.50;1.50;;;15.20;75.30;;;16.91;54.38;97277.91;5060554;28;20459;-79
2022/09/16 08:18:04;;;;;;;2.13;1.50;;;15.10;75.60;;;16.81;54.08;97283.34;5074753;28;20472;-80
2022/09/16 08:20:33;;;;;;;4.03;1.80;;;15.00;75.10;;;16.95;54.69;97287.16;5064270;28;20492;-77
2022/09/16 08:23:00;;;;;;;3.13;1.80;;;14.90;75.70;;;16.88;53.78;97292.06;5063377;28;20455;-79
2022/09/16 08:25:28;;;;;;;3.20;1.80;;;15.00;74.90;;;16.65;54.14;97293.44;5062861;28;20456;-77
2022/09/16 08:27:55;;;;;;;5.30;1.80;;;14.90;74.90;;;16.55;55.05;97292.38;5060913;28;21345;-77
2022/09/16 08:30:23;;;;;;;2.60;1.70;;;14.70;75.30;;;16.88;53.98;97283.88;5058939;28;20460;-78
2022/09/16 08:32:56;;;;;;;4.60;2.07;;;14.80;75.10;;;16.66;54.23;97289.63;5081293;28;20456;-77
2022/09/16 08:35:25;;;;;;;3.37;2.17;;;14.80;74.80;;;16.54;54.08;97289.91;5068228;28;20920;-78
2022/09/16 08:37:53;;;;;;;2.90;1.57;;;14.70;74.10;;;16.62;54.86;97292.09;5078575;28;20957;-77
2022/09/16 08:40:23;;;;;;;2.50;1.40;;;14.70;75.10;;;16.34;55.07;97285.25;5059467;28;20533;-77
2022/09/16 08:43:04;;;;;;;2.37;2.00;;;14.60;74.80;;;16.47;54.42;97294.81;5060564;28;20468;-79
2022/09/16 08:45:41;;;;;;;3.00;1.97;;;14.60;74.80;;;16.88;53.46;97283.88;5057683;28;20456;-79
2022/09/16 08:48:28;;;;;;;3.33;2.03;;;14.80;75.00;;;16.54;54.56;97301.66;5061423;28;20524;-78
2022/09/16 08:50:59;;;;;;;5.67;2.30;;;14.80;74.60;;;16.74;53.01;97293.72;5063487;28;20546;-76
2022/09/16 08:53:40;;;;;;;1.93;1.33;;;14.90;73.80;;;16.80;53.11;97292.63;5057327;28;20819;-81
2022/09/16 08:56:12;;;;;;;3.03;1.40;;;14.90;73.80;;;17.26;51.54;97284.41;5062646;28;20460;-75
2022/09/16 08:58:43;;;;;;;6.47;1.60;;;15.20;73.20;;;16.83;52.64;97292.91;5064041;28;20471;-76
2022/09/16 09:01:20;;;;;;;2.07;1.37;;;15.10;72.90;;;16.53;53.76;97294.56;5056644;28;20468;-77
2022/09/16 09:03:48;;;;;;;1.90;1.37;;;14.80;73.20;;;16.77;53.44;97294.00;5058350;28;20528;-77
2022/09/16 09:06:34;;;;;;;4.57;1.90;;;14.80;73.80;;;16.68;52.77;97296.44;5059452;28;20554;-81
2022/09/16 09:09:15;;;;;;;1.90;1.30;;;14.90;73.60;;;16.78;52.93;97284.72;5062367;28;20549;-77
2022/09/16 09:11:49;;;;;;;3.73;1.37;;;14.90;73.00;;;16.85;52.16;97284.44;5060109;28;20553;-73
2022/09/16 09:14:31;;;;;;;2.40;1.63;;;14.90;72.90;;;17.07;52.40;97286.09;5062004;28;20467;-72
2022/09/16 09:17:07;;;;;;;1.97;1.77;;;15.10;72.90;;;16.61;53.08;97292.38;5053908;28;20503;-72
2022/09/16 09:19:55;;;;;;;3.40;1.70;;;14.90;73.00;;;16.71;53.09;97295.91;5057337;28;20582;-73
2022/09/16 09:22:53;;;;;;;2.53;1.57;;;14.80;72.90;;;16.47;53.21;97305.72;5060510;28;20524;-73
2022/09/16 09:25:34;;;;;;;2.80;1.80;;;14.80;72.80;;;16.81;53.71;97297.00;5065313;28;20729;-72
2022/09/16 09:28:20;;;;;;;1.70;1.60;;;14.90;73.30;;;16.92;53.23;97295.91;5056185;28;20573;-72
2022/09/16 09:30:59;;;;;;;2.13;1.60;;;14.90;73.30;;;16.97;52.99;97290.44;5060419;28;20812;-74
2022/09/16 09:33:40;;;;;;;3.40;1.70;;;15.00;73.30;;;17.18;52.48;97282.22;5076420;28;21110;-73
2022/09/16 09:36:32;;;;;;;3.07;1.80;;;15.10;73.30;;;17.13;52.96;97288.50;5055049;28;21251;-71
2022/09/16 09:39:18;;;;;;;1.60;1.37;;;15.20;73.10;;;17.37;52.34;97287.13;5063028;28;21283;-73
2022/09/16 09:41:50;;;;;;;2.40;1.70;;;15.30;73.00;;;17.84;51.01;97293.19;5056383;28;20994;-73
2022/09/16 09:44:41;;;;;;;6.57;2.20;;;15.50;72.90;;;18.04;50.50;97286.84;5054786;28;20484;-71
2022/09/16 09:47:16;;;;;;;2.73;1.70;;;15.70;72.60;;;18.12;49.95;97291.72;5062096;28;20506;-72
2022/09/16 09:49:47;;;;;;;8.73;2.27;;;15.90;72.10;;;17.88;51.10;97288.00;5060030;28;20489;-73
2022/09/16 09:52:19;;;;;;;3.17;2.00;;;15.90;72.60;;;17.79;51.04;97290.50;5063553;28;20464;-72
2022/09/16 09:54:50;;;;;;;2.23;2.00;;;15.80;72.10;;;17.14;52.71;97292.06;5060701;28;20976;-73
2022/09/16 09:57:27;;;;;;;3.53;1.70;;;15.40;71.80;;;17.67;51.42;97290.84;5058536;28;21023;-73
2022/09/16 10:00:01;;;;;;;11.13;2.70;;;15.60;72.00;;;18.08;49.84;97287.09;5057777;28;20486;-73
2022/09/16 10:02:28;;;;;;;4.20;2.03;;;15.80;71.40;;;18.36;49.72;97282.00;5060980;28;21167;-74
2022/09/16 10:04:56;;;;;;;3.40;1.60;;;16.00;71.40;;;18.66;49.12;97280.94;5055178;28;20706;-73
2022/09/16 10:07:27;;;;;;;3.60;1.53;;;16.40;70.90;;;18.63;48.30;97281.53;5063711;28;20552;-74
2022/09/16 10:09:59;;;;;;;3.30;1.73;;;16.60;69.70;;;18.83;47.55;97279.69;5055704;28;21212;-75
2022/09/16 10:12:29;;;;;;;2.10;1.60;;;16.60;69.00;;;18.80;47.69;97272.91;5061716;28;20445;-76
2022/09/16 10:14:57;;;;;;;4.50;1.70;;;16.60;69.10;;;18.60;47.27;97282.09;5061690;28;20463;-74
2022/09/16 10:17:27;;;;;;;3.43;1.80;;;16.60;68.10;;;18.39;47.29;97282.22;5060191;28;20464;-74
2022/09/16 10:19:59;;;;;;;3.90;2.00;;;16.60;67.60;;;18.57;46.42;97276.38;5064637;28;20527;-75
2022/09/16 10:22:29;;;;;;;6.73;1.70;;;16.60;66.70;;;18.87;45.56;97275.28;5067020;28;20998;-73
2022/09/16 10:25:00;;;;;;;2.60;1.43;;;16.70;66.40;;;18.60;45.62;97276.63;5057498;28;20945;-73
2022/09/16 10:27:31;;;;;;;1.80;1.37;;;16.70;65.40;;;18.45;45.56;97279.47;5061527;28;21061;-74
2022/09/16 10:30:15;;;;;;;2.47;1.80;;;16.50;64.70;;;18.76;45.33;97268.28;5059284;28;20447;-75
2022/09/16 10:32:50;;;;;;;2.00;1.60;;;16.60;65.20;;;19.06;45.37;97266.41;5059914;28;20467;-75
2022/09/16 10:35:23;;;;;;;4.17;1.80;;;16.90;65.40;;;18.78;44.44;97266.06;5061082;28;20459;-74
2022/09/16 10:37:57;;;;;;;2.80;1.93;;;16.90;63.60;;;18.77;44.68;97243.34;5062270;28;20460;-75
2022/09/16 10:40:26;;;;;;;1.70;1.60;;;16.80;63.70;;;19.09;44.33;97265.81;5078882;28;20468;-76